CGI weather

Cape Girardeau Regional Airport
Cape Girardeau, Missouri, United States

Public forecast

Using degrees Fahrenheit for public forecast. Weather courtesy of forecast.io.

METAR (pilot weather report)

Retrieved 2019/05/22 10:24 UTC (0 seconds ago):

KCGI 221024Z AUTO 17005KT 10SM SCT009 OVC090 17/15 A2985 RMK AO2 T01670150

TAF (pilot weather forecast)

Retrieved 2019/05/22 06:22 UTC (4 hours ago):

TAF KCGI 220520Z 2206/2306 25007KT 6SM SHRA BR OVC035 FM221100 17008KT P6SM VCSH BKN030 FM221300 17009KT P6SM BKN040 FM221700 19012G20KT P6SM BKN070 FM222000 20013KT P6SM FEW200